Palm Shores, Florida
Current Conditions -  °F | °C
As of 3:58 AM on Wednesday 22 Oct 2014 (Local Time) from KCOF Reporting Station
Clear Clear  
Wind Chill: 71°   Ceiling: Unl
Heat Index: 71°   Visibility: 10mi
Dew Point: 70°   Wind: 7mph
Humidity: 95%   Direction: 280°W
Pressure: 29.92"   Gusts: NA
Location:  28.2259°N, 80.6951°W
Report Text: KCOF 220758Z AUTO 28006KT 10SM CLR 22/21 A2992 RMK AO2 SLP136 T02170209
Loading
Personal Weather Stations






























Interactive Weather Map
Tropical Storm Tracking
New forecast layout! Learn more

10-Day Weather Forecast

Advertisements
Track Severe Weather on mobile